createdAt,value
2022-12-11T00:00:12.211Z,6.25
2022-12-11T00:02:40.463Z,6.37
2022-12-11T00:05:45.738Z,6.43
2022-12-11T00:08:14.112Z,6.53
2022-12-11T00:10:42.265Z,6.57
2022-12-11T00:13:39.364Z,6.63
2022-12-11T00:16:07.657Z,6.57
2022-12-11T00:19:12.946Z,6.56
2022-12-11T00:21:41.194Z,6.45
2022-12-11T00:24:09.440Z,6.26
2022-12-11T00:27:14.710Z,6.32
2022-12-11T00:29:42.995Z,6.35
2022-12-11T00:32:11.328Z,6.37
2022-12-11T00:35:16.543Z,6.36
2022-12-11T00:37:44.791Z,6.37
2022-12-11T00:40:13.060Z,6.4
2022-12-11T00:42:41.250Z,6.38
2022-12-11T00:45:09.745Z,6.48
2022-12-11T00:48:14.817Z,6.58
2022-12-11T00:50:43.139Z,6.67
2022-12-11T00:53:11.347Z,6.6
2022-12-11T00:55:39.598Z,6.58
2022-12-11T00:58:07.875Z,6.46
2022-12-11T01:01:13.243Z,6.53
2022-12-11T01:03:41.381Z,6.37
2022-12-11T01:06:09.653Z,6.59
2022-12-11T01:09:51.962Z,6.62
2022-12-11T01:14:11.452Z,6.88
2022-12-11T01:17:08.549Z,6.99
2022-12-11T01:20:13.825Z,7.08
2022-12-11T01:22:42.116Z,7.11
2022-12-11T01:25:10.542Z,7.31
2022-12-11T01:28:15.664Z,7.44
2022-12-11T01:30:44.022Z,7.49
2022-12-11T01:33:12.161Z,7.45
2022-12-11T01:35:40.412Z,6.66
2022-12-11T01:38:45.677Z,7.57
2022-12-11T01:41:13.984Z,7.55
2022-12-11T01:43:42.202Z,7.53
2022-12-11T01:46:10.469Z,7.55
2022-12-11T01:49:15.746Z,7.45
2022-12-11T01:51:43.965Z,7.45
2022-12-11T01:54:12.284Z,7.48
2022-12-11T01:56:40.512Z,7.49
2022-12-11T01:59:08.773Z,7.53
2022-12-11T02:02:14.056Z,7.64
2022-12-11T02:05:56.431Z,7.68
2022-12-11T02:09:01.743Z,7.72
2022-12-11T02:12:07.030Z,7.77
2022-12-11T02:15:04.176Z,7.73
2022-12-11T02:18:09.459Z,7.64
2022-12-11T02:21:14.764Z,7.64
2022-12-11T02:23:43.016Z,7.63
2022-12-11T02:26:11.275Z,7.6
2022-12-11T02:29:16.599Z,7.56
2022-12-11T02:31:44.921Z,7.56
2022-12-11T02:34:50.145Z,7.5
2022-12-11T02:37:55.454Z,7.53
2022-12-11T02:41:00.769Z,7.48
2022-12-11T02:44:06.086Z,7.48
2022-12-11T02:47:11.376Z,7.53
2022-12-11T02:50:16.661Z,7.52
2022-12-11T02:52:44.910Z,7.57
2022-12-11T02:55:13.331Z,7.72
2022-12-11T02:57:41.409Z,7.53
2022-12-11T03:00:09.682Z,7.65
2022-12-11T03:03:52.019Z,7.41
2022-12-11T03:06:57.369Z,7.41
2022-12-11T03:10:02.663Z,7.36
2022-12-11T03:13:07.965Z,7.34
2022-12-11T03:16:05.103Z,7.38
2022-12-11T03:19:10.390Z,7.54
2022-12-11T03:22:15.698Z,7.63
2022-12-11T03:24:43.923Z,7.67
2022-12-11T03:27:12.199Z,7.76
2022-12-11T03:29:40.428Z,7.8
2022-12-11T03:32:08.668Z,7.88
2022-12-11T03:35:14.243Z,7.89
2022-12-11T03:37:42.268Z,7.88
2022-12-11T03:40:10.493Z,7.8
2022-12-11T03:43:15.793Z,7.71
2022-12-11T03:45:44.101Z,7.71
2022-12-11T03:48:12.297Z,7.66
2022-12-11T03:50:40.512Z,7.6
2022-12-11T03:53:08.811Z,7.58
2022-12-11T03:56:14.073Z,7.6
2022-12-11T03:58:42.363Z,7.65
2022-12-11T04:01:10.609Z,7.77
2022-12-11T04:04:15.918Z,7.83
2022-12-11T04:06:44.133Z,7.84
2022-12-11T04:09:12.422Z,7.78
2022-12-11T04:11:40.650Z,7.77
2022-12-11T04:15:14.868Z,7.85
2022-12-11T04:17:43.146Z,7.86
2022-12-11T04:20:11.315Z,7.89
2022-12-11T04:22:39.516Z,7.88
2022-12-11T04:25:07.968Z,7.84
2022-12-11T04:28:13.102Z,7.73
2022-12-11T04:30:41.575Z,7.4
2022-12-11T04:33:46.671Z,7.65
2022-12-11T04:36:14.930Z,7.62
2022-12-11T04:38:43.174Z,7.65
2022-12-11T04:41:11.395Z,7.72
2022-12-11T04:44:16.697Z,7.72
2022-12-11T04:46:45.004Z,7.7
2022-12-11T04:49:13.247Z,7.73
2022-12-11T04:51:41.516Z,7.72
2022-12-11T04:54:09.729Z,7.74
2022-12-11T04:57:52.112Z,7.71
2022-12-11T05:00:57.392Z,7.71
2022-12-11T05:04:02.688Z,7.7
2022-12-11T05:07:08.031Z,7.6
2022-12-11T05:10:13.337Z,7.53
2022-12-11T05:12:41.608Z,7.55
2022-12-11T05:15:01.608Z,7.6
2022-12-11T05:18:06.957Z,7.58
2022-12-11T05:21:12.218Z,7.49
2022-12-11T05:23:40.488Z,7.52
2022-12-11T05:26:08.741Z,7.54
2022-12-11T05:29:14.078Z,7.56
2022-12-11T05:31:42.321Z,7.59
2022-12-11T05:34:10.534Z,7.65
2022-12-11T05:37:15.859Z,7.63
2022-12-11T05:39:44.096Z,7.62
2022-12-11T05:42:12.347Z,7.51
2022-12-11T05:44:40.572Z,7.49
2022-12-11T05:47:08.888Z,7.42
2022-12-11T05:50:14.140Z,7.45
2022-12-11T05:52:42.393Z,7.47
2022-12-11T05:55:10.802Z,7.56
2022-12-11T05:58:15.967Z,7.61
2022-12-11T06:00:44.198Z,7.63
2022-12-11T06:03:12.540Z,7.7
2022-12-11T06:05:40.697Z,7.71
2022-12-11T06:08:09.026Z,7.72
2022-12-11T06:11:15.664Z,7.74
2022-12-11T06:13:42.515Z,7.74
2022-12-11T06:16:02.623Z,7.7
2022-12-11T06:19:07.844Z,7.62
2022-12-11T06:22:13.179Z,7.59
2022-12-11T06:24:41.436Z,7.73
2022-12-11T06:27:09.644Z,7.56
2022-12-11T06:30:52.263Z,7.63
2022-12-11T06:33:57.367Z,7.66
2022-12-11T06:37:02.646Z,7.69
2022-12-11T06:40:07.972Z,7.8
2022-12-11T06:43:13.257Z,7.84
2022-12-11T06:45:41.544Z,7.84
2022-12-11T06:48:46.845Z,7.8
2022-12-11T06:51:15.107Z,7.76
2022-12-11T06:53:43.318Z,7.75
2022-12-11T06:56:11.595Z,7.71
2022-12-11T06:59:16.841Z,7.63
2022-12-11T07:01:45.149Z,7.59
2022-12-11T07:04:13.366Z,7.54
2022-12-11T07:06:41.649Z,7.57
2022-12-11T07:09:09.851Z,7.61
2022-12-11T07:12:15.185Z,7.64
2022-12-11T07:15:49.350Z,7.68
2022-12-11T07:18:54.647Z,7.75
2022-12-11T07:21:59.952Z,7.79
2022-12-11T07:25:05.285Z,7.77
2022-12-11T07:28:15.185Z,7.77
2022-12-11T07:31:15.952Z,7.73
2022-12-11T07:33:44.177Z,7.72
2022-12-11T07:36:12.410Z,7.66
2022-12-11T07:38:40.610Z,7.65
2022-12-11T07:41:08.910Z,7.6
2022-12-11T07:44:14.183Z,7.59
2022-12-11T07:46:42.446Z,7.61
2022-12-11T07:49:10.671Z,7.65
2022-12-11T07:52:16.002Z,7.71
2022-12-11T07:54:44.267Z,7.73
2022-12-11T07:57:14.278Z,7.81
2022-12-11T07:59:40.755Z,7.81
2022-12-11T08:02:09.060Z,7.77
2022-12-11T08:05:14.308Z,7.79
2022-12-11T08:07:42.555Z,7.76
2022-12-11T08:10:10.792Z,7.7
2022-12-11T08:13:16.095Z,7.63
2022-12-11T08:16:21.468Z,7.58
2022-12-11T08:18:41.474Z,7.56
2022-12-11T08:21:09.695Z,7.53
2022-12-11T08:24:15.057Z,7.54
2022-12-11T08:26:43.258Z,7.57
2022-12-11T08:29:11.557Z,7.63
2022-12-11T08:32:16.825Z,7.78
2022-12-11T08:34:45.074Z,7.82
2022-12-11T08:37:13.328Z,7.77
2022-12-11T08:39:41.566Z,7.71
2022-12-11T08:42:09.820Z,7.69
2022-12-11T08:45:15.123Z,7.65
2022-12-11T08:47:43.376Z,7.64
2022-12-11T08:50:11.626Z,7.62
2022-12-11T08:52:39.857Z,7.61
2022-12-11T08:55:09.355Z,7.63
2022-12-11T08:58:13.411Z,7.68
2022-12-11T09:00:41.689Z,7.65
2022-12-11T09:03:12.738Z,7.74
2022-12-11T09:06:15.225Z,7.82
2022-12-11T09:08:47.258Z,7.85
2022-12-11T09:11:11.716Z,7.84
2022-12-11T09:14:17.028Z,7.86
2022-12-11T09:17:14.157Z,7.91
2022-12-11T09:19:42.398Z,7.87
2022-12-11T09:22:10.653Z,7.95
2022-12-11T09:25:15.926Z,7.99
2022-12-11T09:27:44.168Z,8
2022-12-11T09:30:12.532Z,7.98
2022-12-11T09:32:40.676Z,7.98
2022-12-11T09:35:09.181Z,7.99
2022-12-11T09:38:14.441Z,8.03
2022-12-11T09:40:42.529Z,8.06
2022-12-11T09:43:10.732Z,8.13
2022-12-11T09:46:16.093Z,8.16
2022-12-11T09:48:44.299Z,8.18
2022-12-11T09:51:12.543Z,8.26
2022-12-11T09:53:40.764Z,8.28
2022-12-11T09:56:09.029Z,8.28
2022-12-11T09:59:14.350Z,8.28
2022-12-11T10:04:10.848Z,8.28
2022-12-11T10:07:16.154Z,8.25
2022-12-11T10:09:44.440Z,8.22
2022-12-11T10:12:12.662Z,8.24
2022-12-11T10:14:40.908Z,8.26
2022-12-11T10:17:38.000Z,8.33
2022-12-11T10:20:06.244Z,8.37
2022-12-11T10:23:11.588Z,8.47
2022-12-11T10:25:39.820Z,8.51
2022-12-11T10:28:08.046Z,8.57
2022-12-11T10:31:13.438Z,8.57
2022-12-11T10:33:41.630Z,8.58
2022-12-11T10:36:09.885Z,8.58
2022-12-11T10:39:15.183Z,8.57
2022-12-11T10:41:43.437Z,8.55
2022-12-11T10:44:11.675Z,8.51
2022-12-11T10:46:39.991Z,8.5
2022-12-11T10:49:08.176Z,8.47
2022-12-11T10:52:13.512Z,8.46
2022-12-11T10:54:41.747Z,8.43
2022-12-11T10:57:10.015Z,8.54
2022-12-11T11:00:15.342Z,8.64
2022-12-11T11:02:43.548Z,8.68
2022-12-11T11:05:12.171Z,8.77
2022-12-11T11:07:40.008Z,8.76
2022-12-11T11:10:08.295Z,8.72
2022-12-11T11:13:13.596Z,8.72
2022-12-11T11:15:41.874Z,8.74
2022-12-11T11:18:01.894Z,8.72
2022-12-11T11:21:07.172Z,8.72
2022-12-11T11:24:12.480Z,8.72
2022-12-11T11:27:11.512Z,8.72
2022-12-11T11:29:09.001Z,8.66
2022-12-11T11:32:14.309Z,8.71
2022-12-11T11:34:42.546Z,8.72
2022-12-11T11:37:10.787Z,8.87
2022-12-11T11:40:16.128Z,8.97
2022-12-11T11:42:44.332Z,8.97
2022-12-11T11:45:12.833Z,8.99
2022-12-11T11:47:40.858Z,8.99
2022-12-11T11:50:09.113Z,9
2022-12-11T11:53:14.379Z,8.99
2022-12-11T11:55:42.640Z,8.93
2022-12-11T11:58:10.861Z,8.92
2022-12-11T12:01:16.204Z,8.89
2022-12-11T12:03:44.431Z,8.89
2022-12-11T12:06:15.193Z,8.78
2022-12-11T12:08:40.947Z,8.72
2022-12-11T12:11:09.197Z,8.6
2022-12-11T12:14:43.485Z,8.72
2022-12-11T12:17:53.584Z,8.81
2022-12-11T12:20:54.013Z,8.82
2022-12-11T12:23:59.298Z,8.88
2022-12-11T12:27:13.508Z,8.93
2022-12-11T12:30:09.893Z,8.93
2022-12-11T12:33:15.234Z,8.89
2022-12-11T12:35:43.490Z,8.85
2022-12-11T12:38:11.743Z,8.83
2022-12-11T12:41:17.029Z,8.84
2022-12-11T12:43:45.341Z,8.85
2022-12-11T12:46:13.580Z,8.85
2022-12-11T12:48:41.767Z,8.87
2022-12-11T12:51:09.977Z,8.88
2022-12-11T12:54:15.298Z,8.93
2022-12-11T12:56:43.567Z,8.96
2022-12-11T12:59:11.788Z,8.99
2022-12-11T13:01:40.058Z,8.97
2022-12-11T13:04:16.745Z,8.97
2022-12-11T13:07:13.613Z,8.99
2022-12-11T13:09:41.839Z,9.01
2022-12-11T13:12:10.118Z,9.01
2022-12-11T13:15:15.438Z,8.96
2022-12-11T13:18:20.732Z,8.92
2022-12-11T13:20:40.761Z,8.91
2022-12-11T13:23:09.029Z,8.88
2022-12-11T13:26:14.323Z,8.85
2022-12-11T13:28:42.586Z,8.87
2022-12-11T13:31:10.841Z,8.89
2022-12-11T13:33:39.061Z,8.89
2022-12-11T13:36:11.224Z,9.01
2022-12-11T13:39:12.641Z,9.05
2022-12-11T13:41:40.870Z,9.05
2022-12-11T13:44:09.103Z,8.97
2022-12-11T13:47:14.447Z,9.04
2022-12-11T13:49:42.721Z,9.02
2022-12-11T13:52:10.941Z,9.04
2022-12-11T13:55:16.271Z,9.03
2022-12-11T13:57:44.479Z,9.03
2022-12-11T14:00:17.178Z,8.97
2022-12-11T14:02:41.021Z,8.93
2022-12-11T14:05:09.279Z,8.8
2022-12-11T14:08:14.618Z,8.85
2022-12-11T14:10:42.793Z,8.85
2022-12-11T14:13:10.993Z,8.87
2022-12-11T14:16:16.394Z,8.91
2022-12-11T14:18:36.387Z,8.93
2022-12-11T14:21:04.632Z,8.97
2022-12-11T14:24:09.957Z,9
2022-12-11T14:27:15.289Z,9.03
2022-12-11T14:29:43.517Z,9.04
2022-12-11T14:32:11.745Z,9.01
2022-12-11T14:34:40.012Z,8.99
2022-12-11T14:37:08.253Z,8.93
2022-12-11T14:40:13.688Z,8.89
2022-12-11T14:42:41.809Z,8.88
2022-12-11T14:45:10.046Z,8.8
2022-12-11T14:48:15.379Z,8.74
2022-12-11T14:50:43.623Z,8.72
2022-12-11T14:53:11.873Z,8.72
2022-12-11T14:55:40.125Z,8.75
2022-12-11T14:58:08.366Z,8.75
2022-12-11T15:01:13.664Z,8.71
2022-12-11T15:03:41.951Z,8.72
2022-12-11T15:06:10.226Z,8.84
2022-12-11T15:09:15.448Z,8.89
2022-12-11T15:11:43.755Z,8.88
2022-12-11T15:14:11.995Z,8.87
2022-12-11T15:16:40.265Z,8.84
2022-12-11T15:19:00.256Z,8.81
2022-12-11T15:22:05.569Z,8.75
2022-12-11T15:25:10.887Z,8.72
2022-12-11T15:27:39.121Z,8.71
2022-12-11T15:30:07.389Z,8.64
2022-12-11T15:33:12.698Z,8.64
2022-12-11T15:35:40.958Z,8.67
2022-12-11T15:38:09.242Z,8.6
2022-12-11T15:41:14.483Z,8.74
2022-12-11T15:43:42.726Z,8.75
2022-12-11T15:46:10.993Z,8.76
2022-12-11T15:49:16.254Z,8.79
2022-12-11T15:51:44.532Z,8.81
2022-12-11T15:54:12.804Z,8.8
2022-12-11T15:56:41.038Z,8.79
2022-12-11T15:59:09.257Z,8.66
2022-12-11T16:02:14.599Z,8.72
2022-12-11T16:04:42.882Z,8.68
2022-12-11T16:07:11.091Z,8.64
2022-12-11T16:10:16.378Z,8.59
2022-12-11T16:12:44.705Z,8.56
2022-12-11T16:15:15.351Z,8.51
2022-12-11T16:17:41.144Z,8.5
2022-12-11T16:20:09.431Z,8.49
2022-12-11T16:23:06.469Z,8.62
2022-12-11T16:26:11.813Z,8.66
2022-12-11T16:28:40.037Z,8.68
2022-12-11T16:31:08.303Z,8.71
2022-12-11T16:34:13.609Z,8.71
2022-12-11T16:36:41.846Z,8.71
2022-12-11T16:39:10.088Z,8.67
2022-12-11T16:42:15.454Z,8.62
2022-12-11T16:44:44.277Z,8.6
2022-12-11T16:47:11.944Z,8.54
2022-12-11T16:50:17.221Z,8.47
2022-12-11T16:52:45.458Z,8.43
2022-12-11T16:55:14.137Z,8.46
2022-12-11T16:57:41.968Z,8.47
2022-12-11T17:00:10.363Z,8.52
2022-12-11T17:03:15.530Z,8.53
2022-12-11T17:05:43.775Z,8.54
2022-12-11T17:08:12.064Z,8.58
2022-12-11T17:10:40.246Z,8.57
2022-12-11T17:13:08.538Z,8.62
2022-12-11T17:16:13.855Z,8.6
2022-12-11T17:19:47.950Z,8.57
2022-12-11T17:22:16.268Z,8.53
2022-12-11T17:24:44.500Z,8.51
2022-12-11T17:27:12.701Z,8.42
2022-12-11T17:29:40.969Z,8.39
2022-12-11T17:32:09.227Z,8.22
2022-12-11T17:35:14.704Z,8.29
2022-12-11T17:37:42.806Z,8.3
2022-12-11T17:40:11.014Z,8.37
2022-12-11T17:43:16.356Z,8.39
2022-12-11T17:45:44.579Z,8.39
2022-12-11T17:48:12.845Z,8.51
2022-12-11T17:50:41.064Z,8.5
2022-12-11T17:53:09.300Z,8.37
2022-12-11T17:56:14.623Z,8.45
2022-12-11T17:58:42.887Z,8.46
2022-12-11T18:01:11.122Z,8.45
2022-12-11T18:03:39.428Z,8.42
2022-12-11T18:06:07.682Z,8.33
2022-12-11T18:09:12.944Z,8.27
2022-12-11T18:11:41.199Z,8.25
2022-12-11T18:14:13.795Z,8.16
2022-12-11T18:17:14.733Z,8.24
2022-12-11T18:20:11.852Z,8.3
2022-12-11T18:22:40.113Z,8.35
2022-12-11T18:25:10.248Z,8.45
2022-12-11T18:28:13.679Z,8.47
2022-12-11T18:30:41.931Z,8.47
2022-12-11T18:33:10.161Z,8.47
2022-12-11T18:36:15.455Z,8.45
2022-12-11T18:38:43.698Z,8.45
2022-12-11T18:41:11.959Z,8.43
2022-12-11T18:43:40.217Z,8.43
2022-12-11T18:46:08.488Z,8.39
2022-12-11T18:49:13.755Z,8.35
2022-12-11T18:51:42.034Z,8.35
2022-12-11T18:54:10.248Z,8.39
2022-12-11T18:57:15.569Z,8.47
2022-12-11T18:59:43.791Z,8.47
2022-12-11T19:02:12.155Z,8.46
2022-12-11T19:04:40.328Z,7.64
2022-12-11T19:07:45.687Z,8.53
2022-12-11T19:10:13.931Z,8.54
2022-12-11T19:12:42.098Z,8.52
2022-12-11T19:15:10.718Z,8.53
2022-12-11T19:18:15.699Z,8.5
2022-12-11T19:20:48.366Z,8.47
2022-12-11T19:23:03.957Z,8.43
2022-12-11T19:26:09.288Z,8.33
2022-12-11T19:29:14.578Z,8.43
2022-12-11T19:31:42.935Z,8.45
2022-12-11T19:34:11.073Z,8.46
2022-12-11T19:37:16.447Z,8.49
2022-12-11T19:39:44.647Z,8.49
2022-12-11T19:42:12.925Z,8.54
2022-12-11T19:44:41.147Z,8.53
2022-12-11T19:47:09.451Z,8.43
2022-12-11T19:50:14.696Z,8.54
2022-12-11T19:52:46.088Z,8.53
2022-12-11T19:55:11.410Z,8.47
2022-12-11T19:57:39.416Z,8.47
2022-12-11T20:00:07.673Z,8.43
2022-12-11T20:03:12.981Z,8.41
2022-12-11T20:05:41.214Z,8.39
2022-12-11T20:08:35.570Z,8.41
2022-12-11T20:11:18.214Z,8.5
2022-12-11T20:13:43.031Z,8.51
2022-12-11T20:16:11.374Z,8.49
2022-12-11T20:18:39.517Z,8.5
2022-12-11T20:20:59.597Z,8.52
2022-12-11T20:24:04.957Z,8.57
2022-12-11T20:27:10.209Z,8.59
2022-12-11T20:30:15.489Z,8.6
2022-12-11T20:32:43.750Z,8.58
2022-12-11T20:35:12.204Z,8.53
2022-12-11T20:37:40.237Z,8.52
2022-12-11T20:40:08.511Z,8.41
2022-12-11T20:43:13.787Z,8.37
2022-12-11T20:45:42.101Z,8.38
2022-12-11T20:48:10.297Z,8.38
2022-12-11T20:51:17.590Z,8.42
2022-12-11T20:53:43.888Z,8.41
2022-12-11T20:56:12.128Z,8.37
2022-12-11T20:58:40.361Z,8.5
2022-12-11T21:01:45.718Z,8.47
2022-12-11T21:04:13.889Z,8.51
2022-12-11T21:06:42.203Z,8.51
2022-12-11T21:09:10.428Z,8.45
2022-12-11T21:12:15.729Z,8.43
2022-12-11T21:14:43.927Z,8.42
2022-12-11T21:17:12.209Z,8.39
2022-12-11T21:19:40.430Z,8.38
2022-12-11T21:22:08.677Z,8.35
2022-12-11T21:25:05.801Z,8.39
2022-12-11T21:28:11.172Z,8.46
2022-12-11T21:31:16.502Z,8.47
2022-12-11T21:33:44.662Z,8.5
2022-12-11T21:36:12.926Z,8.56
2022-12-11T21:38:41.186Z,8.55
2022-12-11T21:41:09.433Z,8.39
2022-12-11T21:45:25.748Z,8.53
2022-12-11T21:46:43.048Z,8.52
2022-12-11T21:49:11.229Z,8.47
2022-12-11T21:51:42.615Z,8.46
2022-12-11T21:54:07.737Z,8.42
2022-12-11T21:57:13.056Z,8.35
2022-12-11T21:59:41.318Z,8.34
2022-12-11T22:02:09.555Z,8.29
2022-12-11T22:05:15.022Z,8.35
2022-12-11T22:07:43.078Z,8.37
2022-12-11T22:10:11.461Z,8.43
2022-12-11T22:13:16.632Z,8.52
2022-12-11T22:15:44.899Z,8.54
2022-12-11T22:18:13.145Z,8.58
2022-12-11T22:20:41.389Z,8.45
2022-12-11T22:23:01.431Z,8.59
2022-12-11T22:26:43.806Z,8.5
2022-12-11T22:29:12.057Z,8.45
2022-12-11T22:31:40.305Z,8.51
2022-12-11T22:34:45.638Z,8.43
2022-12-11T22:37:13.882Z,8.39
2022-12-11T22:39:42.134Z,8.38
2022-12-11T22:42:10.423Z,8.43
2022-12-11T22:45:15.677Z,8.49
2022-12-11T22:47:43.943Z,8.5
2022-12-11T22:50:12.147Z,8.56
2022-12-11T22:52:40.429Z,8.56
2022-12-11T22:55:08.646Z,8.56
2022-12-11T22:58:17.291Z,8.57
2022-12-11T23:00:42.245Z,8.56
2022-12-11T23:03:10.530Z,8.56
2022-12-11T23:06:15.779Z,8.54
2022-12-11T23:08:44.177Z,8.53
2022-12-11T23:11:12.262Z,8.46
2022-12-11T23:13:40.504Z,8.43
2022-12-11T23:16:08.752Z,8.33
2022-12-11T23:19:14.079Z,8.35
2022-12-11T23:22:19.363Z,8.43
2022-12-11T23:24:39.458Z,8.45
2022-12-11T23:27:07.693Z,8.53
2022-12-11T23:30:13.015Z,8.56
2022-12-11T23:32:41.237Z,8.59
2022-12-11T23:38:15.113Z,8.6
2022-12-11T23:40:43.023Z,8.6
2022-12-11T23:43:11.272Z,8.57
2022-12-11T23:46:16.718Z,8.51
2022-12-11T23:48:44.860Z,8.49
2022-12-11T23:51:13.112Z,8.47
2022-12-11T23:53:41.319Z,8.45
2022-12-11T23:56:46.633Z,8.47
2022-12-11T23:59:14.900Z,8.49
